Time;durP1;ratioP1;P1;durP2;ratioP2;P2;SDS_P1;SDS_P2;PMS_P1;PMS_P2;Temp;Humidity;BMP_temperature;BMP_pressure;BME280_temperature;BME280_humidity;BME280_pressure;Samples;Min_cycle;Max_cycle;Signal;HPM_P1;HPM_P2
2023/04/17 00:04:00;;;;;;;12.32;6.68;;;12.90;97.30;;;;;;10491884;28;20024;-66
2023/04/17 00:09:01;;;;;;;11.95;6.70;;;12.90;97.10;;;;;;10488544;28;20078;-66
2023/04/17 00:14:01;;;;;;;12.55;6.80;;;12.90;97.60;;;;;;10486506;28;20118;-66
2023/04/17 00:19:02;;;;;;;12.75;6.68;;;12.90;97.30;;;;;;10485096;28;20107;-66
2023/04/17 00:24:02;;;;;;;10.63;6.32;;;12.90;97.30;;;;;;10496230;28;20041;-66
2023/04/17 00:29:03;;;;;;;13.27;7.07;;;12.80;97.30;;;;;;10489836;28;20029;-66
2023/04/17 00:34:04;;;;;;;11.48;6.95;;;12.80;97.30;;;;;;10483708;28;20027;-66
2023/04/17 00:39:04;;;;;;;12.00;6.55;;;12.80;97.30;;;;;;10481027;28;20036;-66
2023/04/17 00:44:05;;;;;;;11.90;7.28;;;12.80;97.30;;;;;;10489889;28;20041;-66
2023/04/17 00:49:06;;;;;;;11.07;6.05;;;12.80;97.30;;;;;;10491425;28;20032;-66
2023/04/17 00:54:07;;;;;;;10.18;6.03;;;12.70;97.30;;;;;;10489269;28;20089;-66
2023/04/17 00:59:12;;;;;;;9.98;6.45;;;12.70;97.30;;;;;;10497362;28;20027;-66
2023/04/17 01:04:12;;;;;;;14.23;7.43;;;12.70;97.30;;;;;;10497248;28;20024;-66
2023/04/17 01:09:13;;;;;;;11.15;5.82;;;12.70;97.30;;;;;;10490384;28;20036;-66
2023/04/17 01:14:14;;;;;;;12.18;6.18;;;12.70;97.30;;;;;;10488298;28;20029;-66
2023/04/17 01:19:16;;;;;;;11.07;6.20;;;12.60;97.20;;;;;;10482831;28;20065;-66
2023/04/17 01:24:16;;;;;;;9.90;6.38;;;12.60;97.20;;;;;;10493495;28;20038;-66
2023/04/17 01:29:17;;;;;;;10.48;5.80;;;12.60;97.20;;;;;;10494408;28;20028;-66
2023/04/17 01:34:17;;;;;;;11.65;6.95;;;12.60;97.20;;;;;;10483776;28;20028;-66
2023/04/17 01:39:18;;;;;;;10.57;6.22;;;12.60;97.30;;;;;;10489267;28;20024;-66
2023/04/17 01:44:19;;;;;;;12.45;6.32;;;12.60;97.30;;;;;;10494341;28;20028;-66
2023/04/17 01:49:20;;;;;;;11.10;6.45;;;12.50;97.20;;;;;;10496442;28;20055;-66
2023/04/17 01:54:21;;;;;;;12.15;7.03;;;12.50;97.20;;;;;;10485775;28;20480;-66
2023/04/17 01:59:22;;;;;;;10.32;6.13;;;12.50;97.20;;;;;;10484973;28;20137;-66
2023/04/17 02:04:22;;;;;;;13.18;6.90;;;12.50;97.20;;;;;;10490265;28;20029;-66
2023/04/17 02:09:23;;;;;;;10.80;6.50;;;12.30;97.20;;;;;;10486018;28;20024;-66
2023/04/17 02:14:24;;;;;;;11.10;6.68;;;12.50;97.20;;;;;;10497504;28;20059;-66
2023/04/17 02:19:24;;;;;;;12.88;7.00;;;12.50;97.20;;;;;;10481614;28;20107;-66
2023/04/17 02:24:25;;;;;;;11.90;6.97;;;12.40;97.20;;;;;;10487246;28;20088;-66
2023/04/17 02:29:25;;;;;;;12.70;7.28;;;12.40;97.20;;;;;;10495542;28;20190;-66
2023/04/17 02:34:26;;;;;;;12.73;7.20;;;12.40;97.20;;;;;;10479690;28;20111;-66
2023/04/17 02:39:27;;;;;;;13.43;7.18;;;12.40;97.20;;;;;;10487831;28;20090;-65
2023/04/17 02:44:27;;;;;;;15.15;7.70;;;12.40;97.20;;;;;;10471451;28;20324;-64
2023/04/17 02:49:28;;;;;;;12.60;6.45;;;12.40;97.20;;;;;;10473606;28;20052;-64
2023/04/17 02:54:28;;;;;;;13.48;7.00;;;12.30;97.20;;;;;;10476448;28;20032;-65
2023/04/17 02:59:29;;;;;;;12.50;6.45;;;12.30;97.30;;;;;;10476239;28;20032;-63
2023/04/17 03:04:33;;;;;;;11.20;6.57;;;12.30;97.20;;;;;;10478262;28;20388;-65
2023/04/17 03:09:33;;;;;;;14.43;7.63;;;12.30;97.20;;;;;;10484054;28;20104;-65
2023/04/17 03:14:34;;;;;;;12.50;6.70;;;12.30;97.20;;;;;;10482154;28;20033;-64
2023/04/17 03:19:35;;;;;;;12.30;7.20;;;12.30;97.20;;;;;;10489903;28;20028;-65
2023/04/17 03:24:35;;;;;;;13.57;7.22;;;12.30;97.20;;;;;;10480936;28;20033;-65
2023/04/17 03:29:36;;;;;;;11.77;7.28;;;12.30;97.20;;;;;;10486391;28;20012;-65
2023/04/17 03:34:37;;;;;;;14.68;7.43;;;12.30;97.20;;;;;;10486021;28;20012;-65
2023/04/17 03:39:37;;;;;;;13.70;7.45;;;12.30;97.20;;;;;;10497245;28;20055;-65
2023/04/17 03:44:38;;;;;;;14.10;7.40;;;12.20;97.20;;;;;;10499028;28;20030;-64
2023/04/17 03:49:38;;;;;;;12.82;6.97;;;12.20;97.40;;;;;;10497808;28;20054;-64
2023/04/17 03:54:41;;;;;;;15.60;7.10;;;12.20;97.20;;;;;;10504811;28;20025;-65
2023/04/17 03:59:41;;;;;;;15.63;7.65;;;12.20;97.20;;;;;;10499850;28;20016;-64
2023/04/17 04:04:42;;;;;;;15.45;7.68;;;12.20;97.20;;;;;;10492580;28;20025;-65
2023/04/17 04:09:43;;;;;;;13.15;7.93;;;12.20;97.20;;;;;;10494460;28;20028;-65
2023/04/17 04:14:43;;;;;;;14.40;7.50;;;12.20;97.20;;;;;;10499447;28;20020;-65
2023/04/17 04:19:44;;;;;;;14.18;7.65;;;12.10;97.20;;;;;;10495358;28;20395;-64
2023/04/17 04:24:46;;;;;;;16.77;9.05;;;12.10;97.20;;;;;;10503354;28;20036;-64
2023/04/17 04:29:47;;;;;;;16.50;8.23;;;12.10;97.20;;;;;;10492320;28;20320;-65
2023/04/17 04:34:48;;;;;;;16.55;8.32;;;12.10;97.20;;;;;;10491833;28;20042;-64
2023/04/17 04:39:52;;;;;;;15.88;8.18;;;12.10;97.20;;;;;;10501422;28;20707;-65
2023/04/17 04:44:53;;;;;;;16.20;8.23;;;12.10;97.20;;;;;;10511329;28;20118;-65
2023/04/17 04:49:54;;;;;;;15.32;8.00;;;11.80;97.20;;;;;;10489136;28;20023;-64
2023/04/17 04:54:55;;;;;;;16.50;8.65;;;12.10;97.20;;;;;;10477734;28;20029;-64
2023/04/17 04:59:55;;;;;;;14.75;7.53;;;12.10;97.20;;;;;;10471745;28;20033;-65
2023/04/17 05:04:56;;;;;;;15.73;7.97;;;12.10;97.20;;;;;;10473427;28;20566;-65
2023/04/17 05:09:56;;;;;;;16.40;8.77;;;12.00;97.20;;;;;;10480797;28;20468;-65
2023/04/17 05:14:57;;;;;;;13.65;7.85;;;12.00;97.20;;;;;;10490847;28;20029;-65
2023/04/17 05:19:57;;;;;;;18.17;8.70;;;12.40;97.30;;;;;;10481679;28;20024;-65
2023/04/17 05:24:58;;;;;;;15.25;8.23;;;12.00;97.20;;;;;;10479331;28;20395;-65
2023/04/17 05:29:59;;;;;;;15.95;7.95;;;12.00;97.20;;;;;;10486680;28;20082;-65
2023/04/17 05:35:00;;;;;;;17.52;8.52;;;12.00;97.20;;;;;;10486039;28;20025;-64
2023/04/17 05:40:01;;;;;;;16.00;8.40;;;12.00;97.20;;;;;;10478265;28;20373;-66
2023/04/17 05:45:01;;;;;;;15.95;8.95;;;12.00;97.20;;;;;;10479048;28;20487;-65
2023/04/17 05:50:02;;;;;;;14.55;8.13;;;12.00;97.20;;;;;;10480140;28;20040;-65
2023/04/17 05:55:08;;;;;;;15.25;8.02;;;12.00;97.20;;;;;;10483269;28;20031;-64
2023/04/17 06:00:11;;;;;;;13.68;7.93;;;12.00;97.20;;;;;;10479565;28;20021;-64
2023/04/17 06:05:12;;;;;;;15.30;8.55;;;12.00;97.20;;;;;;10463991;28;20040;-65
2023/04/17 06:10:13;;;;;;;15.70;8.00;;;11.90;97.20;;;;;;10476888;28;20051;-63
2023/04/17 06:15:13;;;;;;;14.35;8.25;;;11.90;97.20;;;;;;10485262;28;20153;-64
2023/04/17 06:20:14;;;;;;;19.27;9.05;;;11.90;97.20;;;;;;10478303;28;20538;-65
2023/04/17 06:25:15;;;;;;;15.23;8.60;;;11.90;97.20;;;;;;10485079;28;20231;-64
2023/04/17 06:30:16;;;;;;;15.65;7.93;;;11.90;97.20;;;;;;10480250;28;20079;-65
2023/04/17 06:35:16;;;;;;;15.23;8.63;;;11.90;97.20;;;;;;10476380;28;20020;-64
2023/04/17 06:40:19;;;;;;;14.27;7.65;;;11.90;97.20;;;;;;10487107;28;20052;-65
2023/04/17 06:45:20;;;;;;;15.75;8.63;;;11.90;97.10;;;;;;10485937;28;20111;-65
2023/04/17 06:50:20;;;;;;;15.80;7.97;;;12.00;97.10;;;;;;10483224;28;20017;-65
2023/04/17 06:55:21;;;;;;;13.10;7.63;;;12.00;97.10;;;;;;10484540;28;20020;-65
2023/04/17 07:00:22;;;;;;;16.85;8.45;;;12.00;97.10;;;;;;10473284;28;20374;-63
2023/04/17 07:05:22;;;;;;;13.20;7.70;;;11.90;97.10;;;;;;10483910;28;20025;-65
2023/04/17 07:10:30;;;;;;;14.68;7.93;;;11.90;97.10;;;;;;10481421;28;20089;-65
2023/04/17 07:15:31;;;;;;;15.25;7.95;;;11.90;97.10;;;;;;10477306;28;20081;-63
2023/04/17 07:20:32;;;;;;;17.35;8.27;;;11.90;97.10;;;;;;10479774;28;20031;-65
2023/04/17 07:25:34;;;;;;;14.77;7.75;;;11.90;97.10;;;;;;10481052;28;20020;-64
2023/04/17 07:30:35;;;;;;;15.60;8.38;;;12.00;97.10;;;;;;10486760;28;20618;-65
2023/04/17 07:35:36;;;;;;;16.17;7.43;;;12.00;97.10;;;;;;10470843;28;20107;-64
2023/04/17 07:40:36;;;;;;;13.52;7.45;;;12.00;97.00;;;;;;10476581;28;20031;-64
2023/04/17 07:45:37;;;;;;;15.48;7.78;;;12.00;97.00;;;;;;10483249;28;20500;-65
2023/04/17 07:50:37;;;;;;;12.77;7.90;;;12.00;97.00;;;;;;10476205;28;20522;-65
2023/04/17 07:55:38;;;;;;;14.02;7.60;;;12.10;97.00;;;;;;10483750;28;20036;-68
2023/04/17 08:00:40;;;;;;;14.63;7.32;;;12.10;96.90;;;;;;10486488;28;20453;-65
2023/04/17 08:05:41;;;;;;;12.98;7.50;;;12.10;96.90;;;;;;10489084;28;20298;-65
2023/04/17 08:10:42;;;;;;;14.18;7.47;;;12.10;96.90;;;;;;10487469;28;20018;-63
2023/04/17 08:15:42;;;;;;;17.00;8.38;;;12.20;96.90;;;;;;10472699;28;20029;-65
2023/04/17 08:20:43;;;;;;;13.82;7.68;;;12.20;96.90;;;;;;10489229;28;20025;-65
2023/04/17 08:25:44;;;;;;;13.88;7.25;;;12.20;96.90;;;;;;10486019;28;20032;-64
2023/04/17 08:30:45;;;;;;;17.25;8.55;;;12.30;96.90;;;;;;10479757;28;20048;-64
2023/04/17 08:35:46;;;;;;;15.48;8.38;;;12.30;96.90;;;;;;10487560;28;20475;-65
2023/04/17 08:40:50;;;;;;;17.02;8.18;;;12.40;96.80;;;;;;10483182;28;20104;-66
2023/04/17 08:45:55;;;;;;;17.20;7.93;;;12.50;96.80;;;;;;10481500;28;20412;-66
2023/04/17 08:50:55;;;;;;;16.20;8.15;;;12.50;96.80;;;;;;10479559;28;20507;-66
2023/04/17 08:56:02;;;;;;;11.98;6.93;;;12.50;96.80;;;;;;10490437;28;20650;-67
2023/04/17 09:01:10;;;;;;;13.40;7.78;;;12.50;96.80;;;;;;10493736;28;20025;-66
2023/04/17 09:06:11;;;;;;;15.60;7.87;;;12.50;96.90;;;;;;10479743;28;20440;-66
2023/04/17 09:11:16;;;;;;;15.65;7.10;;;12.50;96.90;;;;;;10490371;28;20451;-65
2023/04/17 09:16:20;;;;;;;12.77;7.35;;;12.50;97.00;;;;;;10479313;28;20060;-66
2023/04/17 09:21:27;;;;;;;12.65;7.18;;;12.50;97.00;;;;;;10485724;28;20028;-65
2023/04/17 09:26:32;;;;;;;16.15;9.02;;;12.50;97.10;;;;;;10486460;28;20243;-65
2023/04/17 09:31:36;;;;;;;16.23;8.10;;;12.50;97.10;;;;;;10489190;28;20027;-65
2023/04/17 09:36:42;;;;;;;14.32;7.28;;;12.60;97.10;;;;;;10478323;28;20518;-65
2023/04/17 09:41:42;;;;;;;13.88;7.10;;;12.60;97.00;;;;;;10484637;28;20111;-66
2023/04/17 09:46:44;;;;;;;13.48;7.63;;;12.70;96.90;;;;;;10481210;28;20040;-66
2023/04/17 09:51:45;;;;;;;12.68;7.40;;;12.70;96.90;;;;;;10492052;28;20071;-65
2023/04/17 09:56:48;;;;;;;15.10;7.88;;;12.80;96.90;;;;;;10479345;28;20111;-66
2023/04/17 10:01:50;;;;;;;14.15;8.07;;;12.80;96.90;;;;;;10480367;28;20514;-65
2023/04/17 10:06:51;;;;;;;30.67;15.15;;;12.90;96.90;;;;;;10488462;28;20031;-66
2023/04/17 10:11:52;;;;;;;32.03;14.75;;;12.90;97.00;;;;;;10489874;28;20020;-66
2023/04/17 10:16:53;;;;;;;30.92;15.82;;;12.70;97.40;;;;;;10481581;28;20027;-67
2023/04/17 10:22:13;;;;;;;35.03;16.98;;;12.70;97.70;;;;;;10484303;28;20036;-66
2023/04/17 10:27:28;;;;;;;37.90;18.45;;;12.70;98.60;;;;;;10482912;28;20456;-67
2023/04/17 10:32:30;;;;;;;30.77;16.48;;;12.90;98.20;;;;;;10485270;28;20678;-68
2023/04/17 10:37:45;;;;;;;32.08;16.40;;;12.80;97.90;;;;;;10480141;28;20570;-68
2023/04/17 10:43:22;;;;;;;37.33;18.50;;;12.90;99.10;;;;;;10489719;28;20134;-69
2023/04/17 10:48:27;;;;;;;28.25;15.65;;;13.00;98.10;;;;;;10480887;28;20029;-66
2023/04/17 10:53:37;;;;;;;32.47;16.25;;;13.10;97.90;;;;;;10477011;28;20040;-67
2023/04/17 10:58:53;;;;;;;28.75;15.60;;;13.20;97.80;;;;;;10479280;28;20056;-67
2023/04/17 11:03:54;;;;;;;25.17;14.25;;;13.30;97.60;;;;;;10483878;28;20027;-67
2023/04/17 11:08:58;;;;;;;27.10;14.45;;;13.40;97.40;;;;;;10485326;28;20035;-67
2023/04/17 11:13:58;;;;;;;26.25;13.90;;;13.50;97.30;;;;;;10484024;28;20099;-67
2023/04/17 11:18:59;;;;;;;24.25;13.75;;;13.60;97.20;;;;;;10483852;28;20035;-67
2023/04/17 11:24:02;;;;;;;25.83;14.05;;;13.70;97.20;;;;;;10483143;28;20123;-67
2023/04/17 11:29:12;;;;;;;22.75;13.18;;;13.70;97.20;;;;;;10474991;28;20035;-67
2023/04/17 11:34:14;;;;;;;25.63;13.93;;;13.80;97.10;;;;;;10478043;28;20016;-67
2023/04/17 11:39:15;;;;;;;22.27;12.82;;;13.90;97.00;;;;;;10492591;28;20107;-67
2023/04/17 11:44:18;;;;;;;20.08;12.10;;;14.00;96.90;;;;;;10498261;28;20178;-66
2023/04/17 11:49:27;;;;;;;20.20;12.82;;;14.00;96.90;;;;;;10493295;28;20063;-67
2023/04/17 11:54:28;;;;;;;19.33;11.70;;;14.00;96.90;;;;;;10488143;28;20056;-67
2023/04/17 11:59:30;;;;;;;23.38;12.07;;;14.10;96.90;;;;;;10492802;28;20025;-67
2023/04/17 12:04:33;;;;;;;19.13;10.70;;;14.10;96.90;;;;;;10495367;28;20024;-67
2023/04/17 12:09:35;;;;;;;16.27;10.45;;;14.10;96.90;;;;;;10488591;28;20120;-67
2023/04/17 12:14:35;;;;;;;19.40;10.73;;;14.10;97.00;;;;;;10484671;28;20025;-66
2023/04/17 12:19:36;;;;;;;18.17;10.55;;;14.10;97.10;;;;;;10484533;28;20024;-66
2023/04/17 12:24:36;;;;;;;21.42;9.90;;;14.20;97.10;;;;;;10493315;28;20515;-66
2023/04/17 12:29:37;;;;;;;17.92;9.90;;;14.20;97.10;;;;;;10485590;28;20502;-67
2023/04/17 12:34:38;;;;;;;15.02;9.45;;;14.30;97.10;;;;;;10488135;28;20021;-66
2023/04/17 12:39:38;;;;;;;14.82;8.27;;;14.30;97.10;;;;;;10477887;28;20032;-66
2023/04/17 12:44:39;;;;;;;14.05;8.20;;;14.40;97.10;;;;;;10477195;28;20445;-67
2023/04/17 12:49:40;;;;;;;14.80;8.23;;;14.40;97.10;;;;;;10480636;28;20502;-66
2023/04/17 12:54:40;;;;;;;12.77;7.97;;;14.50;97.10;;;;;;10493726;28;20024;-67
2023/04/17 12:59:41;;;;;;;13.88;8.15;;;14.50;97.00;;;;;;10483625;28;20103;-66
2023/04/17 13:04:41;;;;;;;12.00;8.02;;;14.60;97.00;;;;;;10489805;28;20024;-67
2023/04/17 13:09:42;;;;;;;12.32;7.63;;;14.70;97.10;;;;;;10478131;28;20017;-66
2023/04/17 13:14:43;;;;;;;11.85;7.45;;;14.70;97.30;;;;;;10478549;28;20025;-67
2023/04/17 13:19:44;;;;;;;11.40;7.88;;;14.70;97.00;;;;;;10479504;28;20028;-66
2023/04/17 13:24:44;;;;;;;13.10;7.95;;;14.70;97.10;;;;;;10493230;28;20032;-66
2023/04/17 13:29:45;;;;;;;10.63;7.25;;;14.70;97.20;;;;;;10487967;28;20016;-67
2023/04/17 13:34:45;;;;;;;14.23;7.30;;;14.90;97.20;;;;;;10477487;28;20085;-70
2023/04/17 13:39:46;;;;;;;15.75;8.80;;;15.00;95.90;;;;;;10479270;28;21080;-70
2023/04/17 13:44:48;;;;;;;11.88;7.97;;;15.50;94.80;;;;;;10499600;28;20626;-70
2023/04/17 13:49:48;;;;;;;11.07;7.50;;;16.00;92.90;;;;;;10484319;28;20029;-67
2023/04/17 13:54:49;;;;;;;12.60;8.13;;;16.40;90.90;;;;;;10484685;28;20020;-67
2023/04/17 13:59:49;;;;;;;18.15;9.43;;;16.60;90.50;;;;;;10480031;28;20028;-66
2023/04/17 14:04:50;;;;;;;14.00;8.57;;;16.40;89.80;;;;;;10478994;28;20032;-66
2023/04/17 14:09:51;;;;;;;15.15;9.48;;;16.30;88.60;;;;;;10484293;28;20082;-66
2023/04/17 14:14:51;;;;;;;14.63;9.15;;;16.30;90.00;;;;;;10491833;28;20033;-69
2023/04/17 14:19:52;;;;;;;13.30;7.95;;;16.60;88.70;;;;;;10487836;28;20119;-68
2023/04/17 14:24:52;;;;;;;16.45;8.18;;;16.60;87.60;;;;;;10496758;28;20039;-69
2023/04/17 14:29:53;;;;;;;14.85;7.68;;;16.30;87.20;;;;;;10486419;28;20028;-67
2023/04/17 14:34:55;;;;;;;14.10;7.85;;;16.40;87.30;;;;;;10481953;28;20075;-68
2023/04/17 14:39:55;;;;;;;13.98;7.75;;;16.50;86.40;;;;;;10483753;28;20025;-68
2023/04/17 14:44:56;;;;;;;14.68;7.93;;;16.60;84.90;;;;;;10469681;28;20036;-69
2023/04/17 14:49:56;;;;;;;11.30;7.40;;;16.80;84.80;;;;;;10486090;28;20034;-69
2023/04/17 14:54:57;;;;;;;11.93;7.57;;;17.10;82.60;;;;;;10473502;28;20768;-68
2023/04/17 14:59:58;;;;;;;13.52;8.18;;;17.20;81.50;;;;;;10470597;28;20056;-68
2023/04/17 15:04:58;;;;;;;11.82;7.40;;;17.10;81.50;;;;;;10484510;28;20078;-67
2023/04/17 15:09:59;;;;;;;11.18;7.53;;;17.20;80.60;;;;;;10477160;28;20036;-68
2023/04/17 15:15:07;;;;;;;12.10;7.68;;;17.20;80.50;;;;;;10486965;28;20024;-68
2023/04/17 15:20:08;;;;;;;16.17;7.05;;;17.30;79.80;;;;;;10478227;28;20031;-69
2023/04/17 15:25:08;;;;;;;11.77;7.13;;;17.40;78.70;;;;;;10481058;28;20397;-68
2023/04/17 15:30:09;;;;;;;12.85;7.30;;;17.40;78.20;;;;;;10487399;28;20177;-69
2023/04/17 15:35:10;;;;;;;12.57;7.65;;;17.30;78.10;;;;;;10479811;28;20021;-68
2023/04/17 15:40:11;;;;;;;11.85;7.20;;;17.20;78.30;;;;;;10476319;28;20157;-68
2023/04/17 15:45:11;;;;;;;11.93;7.10;;;17.30;78.60;;;;;;10489358;28;20100;-68
2023/04/17 15:50:12;;;;;;;10.88;6.40;;;17.20;77.10;;;;;;10484473;28;20021;-67
2023/04/17 15:55:14;;;;;;;10.20;6.78;;;17.00;76.60;;;;;;10486051;28;20423;-68
2023/04/17 16:00:15;;;;;;;9.40;6.65;;;17.00;76.20;;;;;;10485458;28;20400;-69
2023/04/17 16:05:17;;;;;;;11.32;6.32;;;16.80;77.10;;;;;;10491266;28;20036;-67
2023/04/17 16:10:18;;;;;;;8.70;5.63;;;16.70;76.40;;;;;;10482500;28;20005;-68
2023/04/17 16:15:19;;;;;;;10.13;6.00;;;16.70;76.20;;;;;;10485215;28;20484;-69
2023/04/17 16:20:19;;;;;;;8.73;5.25;;;16.50;76.20;;;;;;10483550;28;20032;-68
2023/04/17 16:25:20;;;;;;;7.88;4.97;;;16.30;75.70;;;;;;10487964;28;20115;-73
2023/04/17 16:30:20;;;;;;;8.18;4.93;;;16.20;75.40;;;;;;10484830;28;20012;-69
2023/04/17 16:35:21;;;;;;;7.40;4.60;;;16.10;74.50;;;;;;10488093;28;20025;-67
2023/04/17 16:40:22;;;;;;;8.55;4.45;;;16.00;74.20;;;;;;10482971;28;20021;-68
2023/04/17 16:45:22;;;;;;;9.20;4.82;;;15.80;73.10;;;;;;10482062;28;20031;-68
2023/04/17 16:50:23;;;;;;;7.53;4.45;;;15.70;73.90;;;;;;10482262;28;20512;-68
2023/04/17 16:55:24;;;;;;;7.05;4.40;;;15.70;74.20;;;;;;10487496;28;20031;-69
2023/04/17 17:00:25;;;;;;;7.90;4.32;;;15.60;73.20;;;;;;10488585;28;20021;-68
2023/04/17 17:05:25;;;;;;;5.55;4.22;;;15.40;72.80;;;;;;10481102;28;20108;-69
2023/04/17 17:10:26;;;;;;;8.60;4.65;;;15.30;73.70;;;;;;10480578;28;20021;-69
2023/04/17 17:15:26;;;;;;;7.43;4.40;;;15.20;73.50;;;;;;10481757;28;20028;-68
2023/04/17 17:20:27;;;;;;;7.95;3.97;;;15.10;73.50;;;;;;10483335;28;20096;-69
2023/04/17 17:25:28;;;;;;;11.00;4.75;;;15.00;74.10;;;;;;10480515;28;20027;-69
2023/04/17 17:30:28;;;;;;;8.25;4.57;;;14.90;74.30;;;;;;10489169;28;20020;-69
2023/04/17 17:35:29;;;;;;;6.35;3.97;;;14.70;74.60;;;;;;10484503;28;20328;-68
2023/04/17 17:40:29;;;;;;;6.70;4.50;;;14.60;74.40;;;;;;10486423;28;20036;-69
2023/04/17 17:45:30;;;;;;;10.75;4.32;;;14.50;75.00;;;;;;10476520;28;20036;-67
2023/04/17 17:50:31;;;;;;;5.95;3.40;;;14.50;75.70;;;;;;10475336;28;20020;-66
2023/04/17 17:55:35;;;;;;;4.07;3.50;;;14.60;76.30;;;;;;10475586;28;20074;-66
2023/04/17 18:00:36;;;;;;;6.32;4.78;;;14.90;77.10;;;;;;10472731;28;20025;-65
2023/04/17 18:05:37;;;;;;;7.85;3.72;;;15.00;77.60;;;;;;10467307;28;20031;-66
2023/04/17 18:10:37;;;;;;;6.28;3.60;;;15.10;78.10;;;;;;10466548;28;20044;-67
2023/04/17 18:15:38;;;;;;;6.25;3.55;;;15.20;78.70;;;;;;10473370;28;20032;-67
2023/04/17 18:20:39;;;;;;;5.60;3.40;;;15.30;79.30;;;;;;10478291;28;20024;-67
2023/04/17 18:25:39;;;;;;;5.43;3.28;;;15.40;79.80;;;;;;10481532;28;20625;-66
2023/04/17 18:30:41;;;;;;;4.50;3.38;;;15.40;80.40;;;;;;10482070;28;20020;-67
2023/04/17 18:35:41;;;;;;;5.28;3.58;;;15.40;81.00;;;;;;10477604;28;20019;-66
2023/04/17 18:40:42;;;;;;;5.18;3.55;;;15.40;81.60;;;;;;10470727;28;20035;-66
2023/04/17 18:45:42;;;;;;;5.47;3.45;;;15.40;82.10;;;;;;10462284;28;20021;-66
2023/04/17 18:50:43;;;;;;;4.95;3.22;;;15.30;82.70;;;;;;10477873;28;20027;-66
2023/04/17 18:55:44;;;;;;;4.65;3.35;;;15.40;83.30;;;;;;10470786;28;20060;-66
2023/04/17 19:00:44;;;;;;;6.65;3.70;;;15.30;83.70;;;;;;10480372;28;20032;-66
2023/04/17 19:05:45;;;;;;;6.43;4.28;;;15.30;84.20;;;;;;10479616;28;20024;-66
2023/04/17 19:10:45;;;;;;;4.68;3.40;;;15.30;84.70;;;;;;10477757;28;20020;-66
2023/04/17 19:15:46;;;;;;;12.23;5.57;;;15.30;85.70;;;;;;10472291;28;20033;-66
2023/04/17 19:20:47;;;;;;;9.15;5.40;;;14.60;86.00;;;;;;10469093;28;20088;-65
2023/04/17 19:25:53;;;;;;;12.57;5.75;;;14.40;87.30;;;;;;10474798;28;20037;-67
2023/04/17 19:30:56;;;;;;;9.23;5.65;;;14.50;87.70;;;;;;10477741;28;20125;-67
2023/04/17 19:35:57;;;;;;;9.25;5.82;;;14.60;87.80;;;;;;10468894;28;20040;-67
2023/04/17 19:41:16;;;;;;;15.65;6.60;;;14.60;88.00;;;;;;10475027;28;20519;-66
2023/04/17 19:46:19;;;;;;;7.90;5.07;;;14.70;88.10;;;;;;10472708;28;20612;-67
2023/04/17 19:51:20;;;;;;;9.32;4.97;;;14.70;88.20;;;;;;10480675;28;20297;-66
2023/04/17 19:56:20;;;;;;;12.07;6.25;;;14.70;88.50;;;;;;10483088;28;20032;-66
2023/04/17 20:01:21;;;;;;;7.95;4.88;;;14.70;88.70;;;;;;10482303;28;20380;-66
2023/04/17 20:06:22;;;;;;;10.10;5.68;;;14.80;88.90;;;;;;10475869;28;20027;-67
2023/04/17 20:11:22;;;;;;;13.35;4.93;;;14.70;89.10;;;;;;10480486;28;20435;-66
2023/04/17 20:16:23;;;;;;;7.70;5.20;;;14.70;89.40;;;;;;10483747;28;20025;-67
2023/04/17 20:21:24;;;;;;;8.48;5.50;;;14.70;89.60;;;;;;10491367;28;20031;-66
2023/04/17 20:26:25;;;;;;;8.50;4.70;;;14.70;89.80;;;;;;10483884;28;20029;-67
2023/04/17 20:31:25;;;;;;;10.10;5.45;;;14.60;90.00;;;;;;10482728;28;20491;-65
2023/04/17 20:36:26;;;;;;;7.82;4.85;;;14.60;90.10;;;;;;10472659;28;20036;-66
2023/04/17 20:41:27;;;;;;;8.95;4.78;;;14.60;90.20;;;;;;10482548;28;20231;-67
2023/04/17 20:46:28;;;;;;;10.80;5.63;;;14.50;90.30;;;;;;10477775;28;20029;-67
2023/04/17 20:51:29;;;;;;;7.28;4.70;;;14.50;90.40;;;;;;10484892;28;20114;-68
2023/04/17 20:56:29;;;;;;;8.05;5.43;;;14.50;90.60;;;;;;10478579;28;20126;-67
2023/04/17 21:01:30;;;;;;;7.57;5.20;;;14.50;90.60;;;;;;10485356;28;20346;-68
2023/04/17 21:06:31;;;;;;;7.38;4.68;;;14.40;90.70;;;;;;10477529;28;20032;-68
2023/04/17 21:11:31;;;;;;;9.18;5.07;;;14.40;90.80;;;;;;10483867;28;20016;-67
2023/04/17 21:16:32;;;;;;;7.80;5.03;;;14.40;90.90;;;;;;10474432;28;20408;-67
2023/04/17 21:21:33;;;;;;;9.88;5.25;;;14.40;91.00;;;;;;10475413;28;20030;-68
2023/04/17 21:26:34;;;;;;;8.40;5.05;;;14.30;91.10;;;;;;10483217;28;20043;-68
2023/04/17 21:31:35;;;;;;;8.38;5.18;;;14.20;91.10;;;;;;10476506;28;20021;-68
2023/04/17 21:36:35;;;;;;;8.70;5.00;;;14.20;91.20;;;;;;10479945;28;20016;-68
2023/04/17 21:41:36;;;;;;;10.10;5.53;;;14.20;91.30;;;;;;10486043;28;20708;-68
2023/04/17 21:46:37;;;;;;;8.63;5.72;;;14.20;91.30;;;;;;10475273;28;20066;-68
2023/04/17 21:51:38;;;;;;;11.07;5.55;;;14.10;91.40;;;;;;10483680;28;20145;-68
2023/04/17 21:56:39;;;;;;;8.35;4.97;;;14.10;91.50;;;;;;10474117;28;20445;-68
2023/04/17 22:01:39;;;;;;;8.07;5.20;;;14.10;91.50;;;;;;10474199;28;20042;-68
2023/04/17 22:06:40;;;;;;;7.45;4.72;;;14.10;91.60;;;;;;10483953;28;20165;-68
2023/04/17 22:11:41;;;;;;;8.25;4.72;;;14.00;91.60;;;;;;10483221;28;20016;-68
2023/04/17 22:16:42;;;;;;;7.60;4.78;;;14.00;91.60;;;;;;10483969;28;20336;-68
2023/04/17 22:21:42;;;;;;;7.28;4.65;;;14.00;91.60;;;;;;10484698;28;20095;-68
2023/04/17 22:38:37;;;;;;;7.75;5.28;;;13.90;91.60;;;;;;10486916;28;20043;-68
2023/04/17 22:55:13;;;;;;;9.88;5.15;;;13.70;91.50;;;;;;10487631;28;20403;-68
2023/04/17 23:00:51;;;;;;;8.32;5.07;;;13.70;91.50;;;;;;10478680;28;20029;-68
2023/04/17 23:11:52;;;;;;;6.47;4.43;;;13.60;91.30;;;;;;10485639;28;20021;-67
2023/04/17 23:16:53;;;;;;;6.95;4.78;;;13.50;91.40;;;;;;10488476;28;20035;-68
2023/04/17 23:21:53;;;;;;;8.52;5.32;;;13.50;91.30;;;;;;10478966;28;20444;-67
2023/04/17 23:26:54;;;;;;;7.85;5.25;;;13.50;91.30;;;;;;10488361;28;20383;-67
2023/04/17 23:31:55;;;;;;;9.30;5.53;;;13.40;91.30;;;;;;10482453;28;20399;-68
2023/04/17 23:36:56;;;;;;;7.93;5.18;;;13.50;91.30;;;;;;10484008;28;20029;-68
2023/04/17 23:41:57;;;;;;;8.05;4.95;;;13.40;91.30;;;;;;10495487;28;20526;-67
2023/04/17 23:46:58;;;;;;;9.63;5.40;;;13.40;91.20;;;;;;10492918;28;20036;-67
2023/04/17 23:51:59;;;;;;;7.05;5.30;;;13.30;91.20;;;;;;10497423;28;20023;-67
2023/04/17 23:57:00;;;;;;;6.70;4.50;;;13.30;91.20;;;;;;10494764;28;20024;-67
